sensor_id;sensor_type;location;lat;lon;timestamp;P1;durP1;ratioP1;P2;durP2;ratioP2
5303;SDS011;2674;49.722;10.892;2023-11-19T06:42:30;7.87;;;5.67;;
5303;SDS011;2674;49.722;10.892;2023-11-19T06:44:56;7.63;;;6.13;;
5303;SDS011;2674;49.722;10.892;2023-11-19T06:47:25;8.07;;;5.80;;
5303;SDS011;2674;49.722;10.892;2023-11-19T06:49:52;8.83;;;6.20;;
5303;SDS011;2674;49.722;10.892;2023-11-19T06:52:18;7.73;;;6.03;;
5303;SDS011;2674;49.722;10.892;2023-11-19T06:54:44;9.67;;;6.20;;
5303;SDS011;2674;49.722;10.892;2023-11-19T06:57:13;7.20;;;5.63;;
5303;SDS011;2674;49.722;10.892;2023-11-19T06:59:39;7.60;;;5.47;;
5303;SDS011;2674;49.722;10.892;2023-11-19T07:02:06;9.80;;;6.10;;
5303;SDS011;2674;49.722;10.892;2023-11-19T07:04:32;7.57;;;6.07;;
5303;SDS011;2674;49.722;10.892;2023-11-19T07:07:01;8.17;;;5.60;;
5303;SDS011;2674;49.722;10.892;2023-11-19T07:09:27;6.17;;;5.53;;
5303;SDS011;2674;49.722;10.892;2023-11-19T07:11:54;5.90;;;5.30;;
5303;SDS011;2674;49.722;10.892;2023-11-19T07:14:21;5.63;;;4.07;;
5303;SDS011;2674;49.722;10.892;2023-11-19T07:16:48;3.73;;;3.40;;
5303;SDS011;2674;49.722;10.892;2023-11-19T07:19:15;6.67;;;5.00;;
5303;SDS011;2674;49.722;10.892;2023-11-19T07:21:41;3.33;;;3.03;;
5303;SDS011;2674;49.722;10.892;2023-11-19T07:24:12;8.00;;;2.87;;
5303;SDS011;2674;49.722;10.892;2023-11-19T07:26:42;3.67;;;2.80;;
5303;SDS011;2674;49.722;10.892;2023-11-19T07:29:09;3.67;;;3.00;;
5303;SDS011;2674;49.722;10.892;2023-11-19T07:31:35;4.23;;;3.03;;
5303;SDS011;2674;49.722;10.892;2023-11-19T07:34:02;2.80;;;2.60;;
5303;SDS011;2674;49.722;10.892;2023-11-19T07:36:28;4.50;;;2.93;;
5303;SDS011;2674;49.722;10.892;2023-11-19T07:38:54;5.20;;;2.80;;
5303;SDS011;2674;49.722;10.892;2023-11-19T07:41:22;5.63;;;3.57;;
5303;SDS011;2674;49.722;10.892;2023-11-19T07:43:50;2.67;;;2.47;;
5303;SDS011;2674;49.722;10.892;2023-11-19T07:46:16;2.73;;;2.53;;
5303;SDS011;2674;49.722;10.892;2023-11-19T07:48:46;2.60;;;2.07;;
5303;SDS011;2674;49.722;10.892;2023-11-19T07:51:12;2.40;;;2.20;;
5303;SDS011;2674;49.722;10.892;2023-11-19T07:53:39;4.30;;;2.97;;
5303;SDS011;2674;49.722;10.892;2023-11-19T07:56:06;3.07;;;2.47;;
5303;SDS011;2674;49.722;10.892;2023-11-19T07:58:32;2.40;;;2.20;;
5303;SDS011;2674;49.722;10.892;2023-11-19T08:00:58;2.53;;;2.40;;
5303;SDS011;2674;49.722;10.892;2023-11-19T08:03:24;3.77;;;2.70;;
5303;SDS011;2674;49.722;10.892;2023-11-19T08:05:49;2.60;;;2.50;;
5303;SDS011;2674;49.722;10.892;2023-11-19T08:08:16;2.73;;;2.60;;
5303;SDS011;2674;49.722;10.892;2023-11-19T08:10:42;3.90;;;2.87;;
5303;SDS011;2674;49.722;10.892;2023-11-19T08:13:12;2.90;;;2.60;;
5303;SDS011;2674;49.722;10.892;2023-11-19T08:15:38;2.40;;;2.20;;
5303;SDS011;2674;49.722;10.892;2023-11-19T08:18:05;3.23;;;2.50;;
5303;SDS011;2674;49.722;10.892;2023-11-19T08:20:32;2.20;;;2.10;;
5303;SDS011;2674;49.722;10.892;2023-11-19T08:22:58;2.20;;;2.10;;
5303;SDS011;2674;49.722;10.892;2023-11-19T08:25:25;2.20;;;2.00;;
5303;SDS011;2674;49.722;10.892;2023-11-19T08:27:50;2.00;;;1.90;;
5303;SDS011;2674;49.722;10.892;2023-11-19T08:30:16;5.30;;;2.53;;
5303;SDS011;2674;49.722;10.892;2023-11-19T08:32:42;2.83;;;2.17;;
5303;SDS011;2674;49.722;10.892;2023-11-19T08:35:08;3.23;;;2.70;;
5303;SDS011;2674;49.722;10.892;2023-11-19T08:37:34;2.50;;;2.30;;
5303;SDS011;2674;49.722;10.892;2023-11-19T08:40:01;4.80;;;2.57;;
5303;SDS011;2674;49.722;10.892;2023-11-19T08:42:29;6.50;;;3.60;;
5303;SDS011;2674;49.722;10.892;2023-11-19T08:44:55;8.47;;;3.73;;
5303;SDS011;2674;49.722;10.892;2023-11-19T08:47:21;4.87;;;3.50;;
5303;SDS011;2674;49.722;10.892;2023-11-19T08:49:48;2.67;;;2.47;;
5303;SDS011;2674;49.722;10.892;2023-11-19T08:52:20;2.40;;;2.27;;
5303;SDS011;2674;49.722;10.892;2023-11-19T08:54:46;2.03;;;1.93;;
5303;SDS011;2674;49.722;10.892;2023-11-19T08:57:11;2.23;;;2.13;;
5303;SDS011;2674;49.722;10.892;2023-11-19T08:59:37;2.30;;;2.20;;
5303;SDS011;2674;49.722;10.892;2023-11-19T09:02:04;3.23;;;1.70;;
5303;SDS011;2674;49.722;10.892;2023-11-19T09:04:30;2.77;;;2.13;;
5303;SDS011;2674;49.722;10.892;2023-11-19T09:06:59;7.00;;;3.17;;
5303;SDS011;2674;49.722;10.892;2023-11-19T09:09:25;2.60;;;2.50;;
5303;SDS011;2674;49.722;10.892;2023-11-19T09:11:51;3.07;;;2.20;;
5303;SDS011;2674;49.722;10.892;2023-11-19T09:14:17;2.33;;;2.20;;
5303;SDS011;2674;49.722;10.892;2023-11-19T09:16:50;2.80;;;2.60;;
5303;SDS011;2674;49.722;10.892;2023-11-19T09:19:17;3.37;;;2.70;;
5303;SDS011;2674;49.722;10.892;2023-11-19T09:21:43;7.63;;;3.40;;
5303;SDS011;2674;49.722;10.892;2023-11-19T09:24:08;4.60;;;4.00;;
5303;SDS011;2674;49.722;10.892;2023-11-19T09:26:34;6.67;;;3.80;;
5303;SDS011;2674;49.722;10.892;2023-11-19T09:29:01;3.60;;;2.93;;
5303;SDS011;2674;49.722;10.892;2023-11-19T09:31:27;2.67;;;2.47;;
5303;SDS011;2674;49.722;10.892;2023-11-19T09:33:53;2.87;;;2.67;;
5303;SDS011;2674;49.722;10.892;2023-11-19T09:36:19;3.73;;;2.60;;
5303;SDS011;2674;49.722;10.892;2023-11-19T09:38:44;2.40;;;2.20;;
5303;SDS011;2674;49.722;10.892;2023-11-19T09:41:10;3.10;;;2.90;;
5303;SDS011;2674;49.722;10.892;2023-11-19T09:43:39;2.83;;;2.63;;
5303;SDS011;2674;49.722;10.892;2023-11-19T09:46:07;3.90;;;2.60;;
5303;SDS011;2674;49.722;10.892;2023-11-19T09:48:36;2.73;;;2.53;;
5303;SDS011;2674;49.722;10.892;2023-11-19T09:51:04;6.23;;;2.47;;
5303;SDS011;2674;49.722;10.892;2023-11-19T09:53:30;2.00;;;1.90;;
5303;SDS011;2674;49.722;10.892;2023-11-19T09:55:57;6.33;;;2.17;;
5303;SDS011;2674;49.722;10.892;2023-11-19T09:58:25;3.37;;;2.30;;
5303;SDS011;2674;49.722;10.892;2023-11-19T10:00:51;3.17;;;2.77;;
5303;SDS011;2674;49.722;10.892;2023-11-19T10:03:17;3.37;;;2.53;;
5303;SDS011;2674;49.722;10.892;2023-11-19T10:05:44;5.93;;;2.43;;
5303;SDS011;2674;49.722;10.892;2023-11-19T10:08:10;1.97;;;1.87;;
5303;SDS011;2674;49.722;10.892;2023-11-19T10:10:36;4.90;;;2.67;;
5303;SDS011;2674;49.722;10.892;2023-11-19T10:13:03;2.50;;;2.33;;
5303;SDS011;2674;49.722;10.892;2023-11-19T10:15:28;2.53;;;2.33;;
5303;SDS011;2674;49.722;10.892;2023-11-19T10:18:02;1.93;;;1.77;;
5303;SDS011;2674;49.722;10.892;2023-11-19T10:20:38;6.73;;;2.13;;
5303;SDS011;2674;49.722;10.892;2023-11-19T10:23:06;3.43;;;2.10;;
5303;SDS011;2674;49.722;10.892;2023-11-19T10:25:33;2.70;;;2.50;;
5303;SDS011;2674;49.722;10.892;2023-11-19T10:27:59;1.73;;;1.67;;
5303;SDS011;2674;49.722;10.892;2023-11-19T10:30:30;6.20;;;3.00;;
5303;SDS011;2674;49.722;10.892;2023-11-19T10:35:32;4.00;;;3.60;;
5303;SDS011;2674;49.722;10.892;2023-11-19T10:38:20;3.80;;;1.87;;
5303;SDS011;2674;49.722;10.892;2023-11-19T10:40:49;5.93;;;4.00;;
5303;SDS011;2674;49.722;10.892;2023-11-19T10:43:18;7.33;;;3.43;;
5303;SDS011;2674;49.722;10.892;2023-11-19T10:45:46;3.43;;;3.10;;
5303;SDS011;2674;49.722;10.892;2023-11-19T10:48:12;4.00;;;2.00;;
5303;SDS011;2674;49.722;10.892;2023-11-19T10:50:38;12.37;;;4.23;;
5303;SDS011;2674;49.722;10.892;2023-11-19T10:53:05;6.40;;;3.17;;
5303;SDS011;2674;49.722;10.892;2023-11-19T10:55:34;1.87;;;1.77;;
5303;SDS011;2674;49.722;10.892;2023-11-19T10:58:06;3.20;;;2.17;;
5303;SDS011;2674;49.722;10.892;2023-11-19T11:00:44;1.80;;;1.70;;
5303;SDS011;2674;49.722;10.892;2023-11-19T11:03:18;5.90;;;2.27;;
5303;SDS011;2674;49.722;10.892;2023-11-19T11:05:49;4.30;;;2.10;;
5303;SDS011;2674;49.722;10.892;2023-11-19T11:08:16;6.27;;;1.70;;
5303;SDS011;2674;49.722;10.892;2023-11-19T11:10:43;1.40;;;1.30;;
5303;SDS011;2674;49.722;10.892;2023-11-19T11:13:20;2.00;;;1.80;;
5303;SDS011;2674;49.722;10.892;2023-11-19T11:15:57;2.10;;;1.90;;
5303;SDS011;2674;49.722;10.892;2023-11-19T11:18:23;4.70;;;2.37;;
5303;SDS011;2674;49.722;10.892;2023-11-19T11:20:54;2.90;;;2.60;;
5303;SDS011;2674;49.722;10.892;2023-11-19T11:29:20;7.10;;;3.73;;
5303;SDS011;2674;49.722;10.892;2023-11-19T11:37:09;6.87;;;4.40;;
5303;SDS011;2674;49.722;10.892;2023-11-19T11:39:51;6.47;;;3.40;;
5303;SDS011;2674;49.722;10.892;2023-11-19T11:55:37;7.47;;;2.97;;
5303;SDS011;2674;49.722;10.892;2023-11-19T11:58:20;5.57;;;2.53;;
5303;SDS011;2674;49.722;10.892;2023-11-19T12:00:50;1.80;;;1.70;;
5303;SDS011;2674;49.722;10.892;2023-11-19T12:03:19;3.43;;;1.80;;
5303;SDS011;2674;49.722;10.892;2023-11-19T12:05:49;2.50;;;2.20;;
5303;SDS011;2674;49.722;10.892;2023-11-19T12:08:18;4.27;;;2.60;;
5303;SDS011;2674;49.722;10.892;2023-11-19T12:10:52;1.97;;;1.87;;
5303;SDS011;2674;49.722;10.892;2023-11-19T12:13:19;4.40;;;2.03;;
5303;SDS011;2674;49.722;10.892;2023-11-19T12:18:27;4.67;;;1.77;;
5303;SDS011;2674;49.722;10.892;2023-11-19T12:20:54;1.70;;;1.60;;
5303;SDS011;2674;49.722;10.892;2023-11-19T12:23:21;2.50;;;1.60;;
5303;SDS011;2674;49.722;10.892;2023-11-19T12:25:50;1.43;;;1.33;;
5303;SDS011;2674;49.722;10.892;2023-11-19T12:28:16;3.33;;;2.67;;
5303;SDS011;2674;49.722;10.892;2023-11-19T12:30:42;4.63;;;2.00;;
5303;SDS011;2674;49.722;10.892;2023-11-19T12:33:13;1.83;;;1.63;;
5303;SDS011;2674;49.722;10.892;2023-11-19T12:35:40;1.87;;;1.40;;
5303;SDS011;2674;49.722;10.892;2023-11-19T12:38:07;2.97;;;1.97;;
5303;SDS011;2674;49.722;10.892;2023-11-19T12:40:43;4.17;;;1.83;;
5303;SDS011;2674;49.722;10.892;2023-11-19T12:43:09;4.43;;;1.87;;
5303;SDS011;2674;49.722;10.892;2023-11-19T12:45:37;11.03;;;5.27;;
5303;SDS011;2674;49.722;10.892;2023-11-19T12:48:07;6.20;;;3.80;;
5303;SDS011;2674;49.722;10.892;2023-11-19T12:53:21;1.33;;;1.23;;
5303;SDS011;2674;49.722;10.892;2023-11-19T12:55:48;1.80;;;1.70;;
5303;SDS011;2674;49.722;10.892;2023-11-19T13:00:59;1.13;;;1.13;;
5303;SDS011;2674;49.722;10.892;2023-11-19T13:03:30;1.73;;;1.63;;
5303;SDS011;2674;49.722;10.892;2023-11-19T13:11:13;4.20;;;1.20;;
5303;SDS011;2674;49.722;10.892;2023-11-19T13:13:56;6.63;;;2.57;;
5303;SDS011;2674;49.722;10.892;2023-11-19T13:16:26;8.10;;;1.77;;
5303;SDS011;2674;49.722;10.892;2023-11-19T13:18:52;1.67;;;1.57;;
5303;SDS011;2674;49.722;10.892;2023-11-19T13:21:18;1.90;;;1.70;;
5303;SDS011;2674;49.722;10.892;2023-11-19T13:23:44;8.00;;;1.47;;
5303;SDS011;2674;49.722;10.892;2023-11-19T13:26:13;2.73;;;1.43;;
5303;SDS011;2674;49.722;10.892;2023-11-19T13:28:39;2.63;;;2.30;;
5303;SDS011;2674;49.722;10.892;2023-11-19T13:31:05;7.23;;;2.13;;
5303;SDS011;2674;49.722;10.892;2023-11-19T13:33:31;2.10;;;2.00;;
5303;SDS011;2674;49.722;10.892;2023-11-19T13:35:56;1.67;;;1.57;;
5303;SDS011;2674;49.722;10.892;2023-11-19T13:38:22;5.13;;;2.73;;
5303;SDS011;2674;49.722;10.892;2023-11-19T13:40:52;1.63;;;1.53;;
5303;SDS011;2674;49.722;10.892;2023-11-19T13:43:17;6.50;;;2.60;;
5303;SDS011;2674;49.722;10.892;2023-11-19T13:45:43;3.37;;;2.70;;
5303;SDS011;2674;49.722;10.892;2023-11-19T13:48:09;5.60;;;2.83;;
5303;SDS011;2674;49.722;10.892;2023-11-19T13:50:35;3.67;;;2.70;;
5303;SDS011;2674;49.722;10.892;2023-11-19T13:53:00;5.40;;;2.23;;
5303;SDS011;2674;49.722;10.892;2023-11-19T13:55:26;5.77;;;2.70;;
5303;SDS011;2674;49.722;10.892;2023-11-19T13:57:52;9.83;;;2.23;;
5303;SDS011;2674;49.722;10.892;2023-11-19T14:00:18;6.10;;;2.77;;
5303;SDS011;2674;49.722;10.892;2023-11-19T14:02:45;4.37;;;2.63;;
5303;SDS011;2674;49.722;10.892;2023-11-19T14:05:12;2.70;;;2.10;;
5303;SDS011;2674;49.722;10.892;2023-11-19T14:07:40;3.13;;;2.13;;
5303;SDS011;2674;49.722;10.892;2023-11-19T14:10:06;4.93;;;2.10;;
5303;SDS011;2674;49.722;10.892;2023-11-19T14:12:41;3.37;;;2.40;;
5303;SDS011;2674;49.722;10.892;2023-11-19T14:15:09;7.27;;;2.40;;
5303;SDS011;2674;49.722;10.892;2023-11-19T14:17:37;3.03;;;1.83;;
5303;SDS011;2674;49.722;10.892;2023-11-19T14:20:03;4.13;;;2.30;;
5303;SDS011;2674;49.722;10.892;2023-11-19T14:22:45;3.53;;;1.43;;
5303;SDS011;2674;49.722;10.892;2023-11-19T14:25:14;3.83;;;1.70;;
5303;SDS011;2674;49.722;10.892;2023-11-19T14:27:40;3.43;;;1.77;;
5303;SDS011;2674;49.722;10.892;2023-11-19T14:30:08;1.97;;;1.63;;
5303;SDS011;2674;49.722;10.892;2023-11-19T14:32:38;5.73;;;1.40;;
5303;SDS011;2674;49.722;10.892;2023-11-19T14:35:05;5.30;;;2.17;;
5303;SDS011;2674;49.722;10.892;2023-11-19T14:37:32;2.40;;;1.67;;
5303;SDS011;2674;49.722;10.892;2023-11-19T14:39:58;2.17;;;1.97;;
5303;SDS011;2674;49.722;10.892;2023-11-19T14:42:24;3.60;;;3.30;;
5303;SDS011;2674;49.722;10.892;2023-11-19T14:44:51;1.33;;;1.23;;
5303;SDS011;2674;49.722;10.892;2023-11-19T14:47:20;2.10;;;1.90;;
5303;SDS011;2674;49.722;10.892;2023-11-19T14:49:47;5.63;;;2.60;;
5303;SDS011;2674;49.722;10.892;2023-11-19T14:52:13;5.97;;;2.80;;
5303;SDS011;2674;49.722;10.892;2023-11-19T14:54:39;5.77;;;2.83;;
5303;SDS011;2674;49.722;10.892;2023-11-19T14:57:05;6.50;;;3.50;;
5303;SDS011;2674;49.722;10.892;2023-11-19T14:59:33;1.90;;;1.77;;
5303;SDS011;2674;49.722;10.892;2023-11-19T15:01:59;6.60;;;2.40;;
5303;SDS011;2674;49.722;10.892;2023-11-19T15:04:28;4.20;;;2.27;;
5303;SDS011;2674;49.722;10.892;2023-11-19T15:06:57;4.30;;;2.43;;
5303;SDS011;2674;49.722;10.892;2023-11-19T15:09:24;2.80;;;2.30;;
5303;SDS011;2674;49.722;10.892;2023-11-19T15:11:50;6.43;;;2.95;;
5303;SDS011;2674;49.722;10.892;2023-11-19T15:14:18;5.30;;;2.73;;
5303;SDS011;2674;49.722;10.892;2023-11-19T15:16:45;2.80;;;2.60;;
5303;SDS011;2674;49.722;10.892;2023-11-19T15:19:14;2.77;;;2.20;;
5303;SDS011;2674;49.722;10.892;2023-11-19T15:21:40;5.63;;;2.83;;
5303;SDS011;2674;49.722;10.892;2023-11-19T15:24:07;5.97;;;2.60;;
5303;SDS011;2674;49.722;10.892;2023-11-19T15:26:33;7.07;;;3.67;;
5303;SDS011;2674;49.722;10.892;2023-11-19T15:29:00;11.37;;;4.80;;
5303;SDS011;2674;49.722;10.892;2023-11-19T15:31:29;10.20;;;5.23;;
5303;SDS011;2674;49.722;10.892;2023-11-19T15:33:55;15.60;;;6.03;;
5303;SDS011;2674;49.722;10.892;2023-11-19T15:36:21;12.60;;;6.10;;
5303;SDS011;2674;49.722;10.892;2023-11-19T15:38:47;13.40;;;5.97;;
5303;SDS011;2674;49.722;10.892;2023-11-19T15:41:13;9.10;;;5.20;;
5303;SDS011;2674;49.722;10.892;2023-11-19T15:43:39;9.17;;;6.20;;
5303;SDS011;2674;49.722;10.892;2023-11-19T15:46:05;8.70;;;5.23;;
5303;SDS011;2674;49.722;10.892;2023-11-19T15:48:36;14.20;;;6.03;;
5303;SDS011;2674;49.722;10.892;2023-11-19T15:51:02;3.10;;;2.17;;
5303;SDS011;2674;49.722;10.892;2023-11-19T15:53:29;6.17;;;2.47;;
5303;SDS011;2674;49.722;10.892;2023-11-19T15:55:56;6.80;;;3.13;;
5303;SDS011;2674;49.722;10.892;2023-11-19T15:58:22;11.00;;;4.47;;
5303;SDS011;2674;49.722;10.892;2023-11-19T16:00:48;9.90;;;5.17;;
5303;SDS011;2674;49.722;10.892;2023-11-19T16:03:14;5.70;;;3.20;;
5303;SDS011;2674;49.722;10.892;2023-11-19T16:05:40;8.70;;;4.83;;
5303;SDS011;2674;49.722;10.892;2023-11-19T16:08:09;4.90;;;3.07;;
5303;SDS011;2674;49.722;10.892;2023-11-19T16:10:36;2.93;;;2.10;;
5303;SDS011;2674;49.722;10.892;2023-11-19T16:13:08;5.70;;;2.70;;
5303;SDS011;2674;49.722;10.892;2023-11-19T16:15:35;5.93;;;3.67;;
5303;SDS011;2674;49.722;10.892;2023-11-19T16:18:01;9.30;;;4.30;;
5303;SDS011;2674;49.722;10.892;2023-11-19T16:20:27;8.80;;;5.20;;
5303;SDS011;2674;49.722;10.892;2023-11-19T16:22:52;7.73;;;4.37;;
5303;SDS011;2674;49.722;10.892;2023-11-19T16:25:18;8.13;;;3.23;;
5303;SDS011;2674;49.722;10.892;2023-11-19T16:27:44;5.00;;;3.00;;
5303;SDS011;2674;49.722;10.892;2023-11-19T16:30:10;2.87;;;2.40;;
5303;SDS011;2674;49.722;10.892;2023-11-19T16:32:47;4.20;;;3.07;;
5303;SDS011;2674;49.722;10.892;2023-11-19T16:35:15;6.40;;;2.80;;
5303;SDS011;2674;49.722;10.892;2023-11-19T16:37:44;4.40;;;3.20;;
5303;SDS011;2674;49.722;10.892;2023-11-19T16:40:11;3.30;;;2.80;;
5303;SDS011;2674;49.722;10.892;2023-11-19T16:42:37;3.70;;;2.40;;
5303;SDS011;2674;49.722;10.892;2023-11-19T16:45:04;8.80;;;2.80;;
5303;SDS011;2674;49.722;10.892;2023-11-19T16:47:31;6.77;;;3.30;;
5303;SDS011;2674;49.722;10.892;2023-11-19T16:49:57;6.00;;;2.90;;
5303;SDS011;2674;49.722;10.892;2023-11-19T16:52:23;6.43;;;3.00;;
5303;SDS011;2674;49.722;10.892;2023-11-19T16:54:50;8.00;;;3.63;;
5303;SDS011;2674;49.722;10.892;2023-11-19T16:57:16;4.97;;;3.77;;
5303;SDS011;2674;49.722;10.892;2023-11-19T16:59:42;6.27;;;4.50;;
5303;SDS011;2674;49.722;10.892;2023-11-19T17:02:08;5.50;;;3.87;;
5303;SDS011;2674;49.722;10.892;2023-11-19T17:04:36;10.27;;;4.30;;
5303;SDS011;2674;49.722;10.892;2023-11-19T17:07:02;6.53;;;4.37;;
5303;SDS011;2674;49.722;10.892;2023-11-19T17:09:28;8.60;;;4.00;;
5303;SDS011;2674;49.722;10.892;2023-11-19T17:11:54;6.93;;;4.10;;
5303;SDS011;2674;49.722;10.892;2023-11-19T17:14:20;10.00;;;5.10;;
5303;SDS011;2674;49.722;10.892;2023-11-19T17:16:46;8.13;;;5.47;;
5303;SDS011;2674;49.722;10.892;2023-11-19T17:19:12;10.13;;;5.60;;
5303;SDS011;2674;49.722;10.892;2023-11-19T17:21:37;7.10;;;5.07;;
5303;SDS011;2674;49.722;10.892;2023-11-19T17:24:03;10.60;;;4.70;;
5303;SDS011;2674;49.722;10.892;2023-11-19T17:26:30;7.30;;;4.47;;
5303;SDS011;2674;49.722;10.892;2023-11-19T17:28:55;7.23;;;4.50;;
5303;SDS011;2674;49.722;10.892;2023-11-19T17:31:21;7.20;;;3.90;;
5303;SDS011;2674;49.722;10.892;2023-11-19T17:33:47;5.77;;;3.73;;
5303;SDS011;2674;49.722;10.892;2023-11-19T17:36:13;6.57;;;4.40;;
5303;SDS011;2674;49.722;10.892;2023-11-19T17:38:38;6.40;;;4.03;;
5303;SDS011;2674;49.722;10.892;2023-11-19T17:41:04;10.37;;;4.50;;
5303;SDS011;2674;49.722;10.892;2023-11-19T17:43:30;5.87;;;4.70;;
5303;SDS011;2674;49.722;10.892;2023-11-19T17:45:56;5.13;;;3.90;;
5303;SDS011;2674;49.722;10.892;2023-11-19T17:48:25;5.57;;;3.30;;
5303;SDS011;2674;49.722;10.892;2023-11-19T17:50:51;7.63;;;4.30;;
5303;SDS011;2674;49.722;10.892;2023-11-19T17:53:20;9.33;;;4.90;;
5303;SDS011;2674;49.722;10.892;2023-11-19T17:55:46;13.43;;;6.30;;
5303;SDS011;2674;49.722;10.892;2023-11-19T17:58:12;10.60;;;6.40;;
5303;SDS011;2674;49.722;10.892;2023-11-19T18:00:38;13.77;;;6.33;;
5303;SDS011;2674;49.722;10.892;2023-11-19T18:03:03;10.27;;;6.17;;
5303;SDS011;2674;49.722;10.892;2023-11-19T18:05:29;11.13;;;7.23;;
5303;SDS011;2674;49.722;10.892;2023-11-19T18:07:55;9.00;;;6.40;;
5303;SDS011;2674;49.722;10.892;2023-11-19T18:10:21;9.80;;;6.90;;
5303;SDS011;2674;49.722;10.892;2023-11-19T18:12:47;7.20;;;5.30;;
5303;SDS011;2674;49.722;10.892;2023-11-19T18:15:13;8.40;;;5.40;;
5303;SDS011;2674;49.722;10.892;2023-11-19T18:17:40;11.30;;;5.67;;
5303;SDS011;2674;49.722;10.892;2023-11-19T18:20:09;7.83;;;5.47;;
5303;SDS011;2674;49.722;10.892;2023-11-19T18:22:39;15.93;;;6.47;;
5303;SDS011;2674;49.722;10.892;2023-11-19T18:25:10;11.30;;;6.43;;
5303;SDS011;2674;49.722;10.892;2023-11-19T18:27:39;9.17;;;5.23;;
5303;SDS011;2674;49.722;10.892;2023-11-19T18:30:08;6.70;;;4.40;;
5303;SDS011;2674;49.722;10.892;2023-11-19T18:32:38;5.87;;;3.83;;
5303;SDS011;2674;49.722;10.892;2023-11-19T18:35:06;6.30;;;4.70;;
5303;SDS011;2674;49.722;10.892;2023-11-19T18:37:39;10.80;;;3.93;;
5303;SDS011;2674;49.722;10.892;2023-11-19T18:40:06;8.10;;;4.47;;
5303;SDS011;2674;49.722;10.892;2023-11-19T18:42:36;4.33;;;3.47;;
5303;SDS011;2674;49.722;10.892;2023-11-19T18:45:03;4.40;;;2.70;;
5303;SDS011;2674;49.722;10.892;2023-11-19T18:47:30;18.70;;;3.43;;
5303;SDS011;2674;49.722;10.892;2023-11-19T18:49:56;4.90;;;2.70;;
5303;SDS011;2674;49.722;10.892;2023-11-19T18:52:22;5.83;;;2.40;;
5303;SDS011;2674;49.722;10.892;2023-11-19T18:54:47;3.50;;;2.50;;
5303;SDS011;2674;49.722;10.892;2023-11-19T18:57:13;7.57;;;3.37;;
5303;SDS011;2674;49.722;10.892;2023-11-19T18:59:39;7.90;;;3.50;;
5303;SDS011;2674;49.722;10.892;2023-11-19T19:02:05;5.80;;;2.97;;
5303;SDS011;2674;49.722;10.892;2023-11-19T19:04:31;5.40;;;3.10;;
5303;SDS011;2674;49.722;10.892;2023-11-19T19:06:57;2.10;;;2.00;;
5303;SDS011;2674;49.722;10.892;2023-11-19T19:09:26;5.77;;;2.70;;
5303;SDS011;2674;49.722;10.892;2023-11-19T19:11:52;7.53;;;3.90;;
5303;SDS011;2674;49.722;10.892;2023-11-19T19:14:18;12.03;;;4.80;;
5303;SDS011;2674;49.722;10.892;2023-11-19T19:16:43;9.93;;;3.50;;
5303;SDS011;2674;49.722;10.892;2023-11-19T19:19:09;4.63;;;2.90;;
5303;SDS011;2674;49.722;10.892;2023-11-19T19:21:35;11.37;;;4.10;;
5303;SDS011;2674;49.722;10.892;2023-11-19T19:24:01;9.77;;;3.50;;
5303;SDS011;2674;49.722;10.892;2023-11-19T19:26:28;5.93;;;2.47;;
5303;SDS011;2674;49.722;10.892;2023-11-19T19:28:57;3.50;;;2.40;;
5303;SDS011;2674;49.722;10.892;2023-11-19T19:31:23;3.17;;;2.40;;
5303;SDS011;2674;49.722;10.892;2023-11-19T19:33:50;7.20;;;2.87;;
5303;SDS011;2674;49.722;10.892;2023-11-19T19:36:23;6.00;;;2.87;;
5303;SDS011;2674;49.722;10.892;2023-11-19T19:38:57;8.00;;;3.07;;
5303;SDS011;2674;49.722;10.892;2023-11-19T19:41:23;8.07;;;3.10;;
5303;SDS011;2674;49.722;10.892;2023-11-19T19:43:51;7.40;;;2.90;;
5303;SDS011;2674;49.722;10.892;2023-11-19T19:46:17;5.47;;;2.90;;
5303;SDS011;2674;49.722;10.892;2023-11-19T19:48:43;6.43;;;3.27;;
5303;SDS011;2674;49.722;10.892;2023-11-19T19:51:11;7.70;;;3.73;;
5303;SDS011;2674;49.722;10.892;2023-11-19T19:53:37;7.73;;;3.10;;
5303;SDS011;2674;49.722;10.892;2023-11-19T19:56:06;8.43;;;3.17;;
5303;SDS011;2674;49.722;10.892;2023-11-19T19:58:33;7.27;;;3.30;;
5303;SDS011;2674;49.722;10.892;2023-11-19T20:01:00;12.10;;;4.80;;
5303;SDS011;2674;49.722;10.892;2023-11-19T20:03:27;7.50;;;3.43;;
5303;SDS011;2674;49.722;10.892;2023-11-19T20:05:57;8.50;;;4.80;;
5303;SDS011;2674;49.722;10.892;2023-11-19T20:08:23;8.73;;;3.80;;
5303;SDS011;2674;49.722;10.892;2023-11-19T20:10:50;16.07;;;5.47;;
5303;SDS011;2674;49.722;10.892;2023-11-19T20:13:16;11.83;;;5.43;;
5303;SDS011;2674;49.722;10.892;2023-11-19T20:15:42;16.37;;;6.30;;
5303;SDS011;2674;49.722;10.892;2023-11-19T20:18:09;8.97;;;5.07;;
5303;SDS011;2674;49.722;10.892;2023-11-19T20:20:39;10.53;;;3.63;;
5303;SDS011;2674;49.722;10.892;2023-11-19T20:23:07;13.53;;;4.90;;
5303;SDS011;2674;49.722;10.892;2023-11-19T20:25:34;8.00;;;3.63;;
5303;SDS011;2674;49.722;10.892;2023-11-19T20:28:00;12.70;;;3.40;;
5303;SDS011;2674;49.722;10.892;2023-11-19T20:30:26;7.33;;;3.90;;
5303;SDS011;2674;49.722;10.892;2023-11-19T20:32:51;12.60;;;4.70;;
5303;SDS011;2674;49.722;10.892;2023-11-19T20:35:17;8.27;;;4.33;;
5303;SDS011;2674;49.722;10.892;2023-11-19T20:37:43;9.70;;;5.07;;
5303;SDS011;2674;49.722;10.892;2023-11-19T20:40:09;11.20;;;4.80;;
5303;SDS011;2674;49.722;10.892;2023-11-19T20:42:37;8.53;;;5.53;;
5303;SDS011;2674;49.722;10.892;2023-11-19T20:45:04;14.97;;;7.13;;
5303;SDS011;2674;49.722;10.892;2023-11-19T20:47:39;21.30;;;8.93;;
5303;SDS011;2674;49.722;10.892;2023-11-19T20:50:06;15.23;;;7.30;;
5303;SDS011;2674;49.722;10.892;2023-11-19T20:52:36;14.73;;;5.90;;
5303;SDS011;2674;49.722;10.892;2023-11-19T20:55:05;10.20;;;4.90;;
5303;SDS011;2674;49.722;10.892;2023-11-19T20:57:32;5.10;;;2.90;;
5303;SDS011;2674;49.722;10.892;2023-11-19T20:59:58;8.03;;;3.00;;
5303;SDS011;2674;49.722;10.892;2023-11-19T21:02:24;14.93;;;2.90;;
5303;SDS011;2674;49.722;10.892;2023-11-19T21:04:50;9.27;;;3.47;;
5303;SDS011;2674;49.722;10.892;2023-11-19T21:07:15;9.80;;;2.67;;
5303;SDS011;2674;49.722;10.892;2023-11-19T21:09:41;8.73;;;2.90;;
5303;SDS011;2674;49.722;10.892;2023-11-19T21:12:07;5.30;;;2.63;;
5303;SDS011;2674;49.722;10.892;2023-11-19T21:14:34;3.87;;;2.43;;
5303;SDS011;2674;49.722;10.892;2023-11-19T21:17:03;4.57;;;2.90;;
5303;SDS011;2674;49.722;10.892;2023-11-19T21:19:29;14.13;;;2.80;;
5303;SDS011;2674;49.722;10.892;2023-11-19T21:21:55;7.80;;;2.63;;
5303;SDS011;2674;49.722;10.892;2023-11-19T21:24:21;9.40;;;2.80;;
5303;SDS011;2674;49.722;10.892;2023-11-19T21:26:46;5.70;;;2.40;;
5303;SDS011;2674;49.722;10.892;2023-11-19T21:29:12;10.43;;;3.00;;
5303;SDS011;2674;49.722;10.892;2023-11-19T21:31:38;5.60;;;2.40;;
5303;SDS011;2674;49.722;10.892;2023-11-19T21:34:05;5.20;;;2.67;;
5303;SDS011;2674;49.722;10.892;2023-11-19T21:36:31;4.77;;;3.43;;
5303;SDS011;2674;49.722;10.892;2023-11-19T21:38:57;6.87;;;3.00;;
5303;SDS011;2674;49.722;10.892;2023-11-19T21:41:23;10.77;;;2.53;;
5303;SDS011;2674;49.722;10.892;2023-11-19T21:43:48;11.30;;;4.17;;
5303;SDS011;2674;49.722;10.892;2023-11-19T21:46:14;14.63;;;2.63;;
5303;SDS011;2674;49.722;10.892;2023-11-19T21:48:40;4.53;;;2.67;;
5303;SDS011;2674;49.722;10.892;2023-11-19T21:51:07;2.10;;;1.90;;
5303;SDS011;2674;49.722;10.892;2023-11-19T21:53:33;6.37;;;2.30;;
5303;SDS011;2674;49.722;10.892;2023-11-19T21:55:59;4.00;;;2.60;;
5303;SDS011;2674;49.722;10.892;2023-11-19T21:58:25;4.97;;;2.80;;
5303;SDS011;2674;49.722;10.892;2023-11-19T22:00:51;6.23;;;2.27;;
5303;SDS011;2674;49.722;10.892;2023-11-19T22:03:17;10.43;;;3.70;;
5303;SDS011;2674;49.722;10.892;2023-11-19T22:05:43;9.20;;;2.43;;
5303;SDS011;2674;49.722;10.892;2023-11-19T22:08:09;8.90;;;2.60;;
5303;SDS011;2674;49.722;10.892;2023-11-19T22:10:35;17.80;;;2.83;;
5303;SDS011;2674;49.722;10.892;2023-11-19T22:13:01;12.73;;;2.77;;
5303;SDS011;2674;49.722;10.892;2023-11-19T22:15:28;7.50;;;2.30;;
5303;SDS011;2674;49.722;10.892;2023-11-19T22:17:54;6.73;;;1.97;;
5303;SDS011;2674;49.722;10.892;2023-11-19T22:20:20;10.70;;;2.40;;
5303;SDS011;2674;49.722;10.892;2023-11-19T22:22:49;9.43;;;2.40;;